createdAt,value
2019-03-30T00:00:29.255Z,10.40
2019-03-30T00:02:58.226Z,11.20
2019-03-30T00:05:27.181Z,10.43
2019-03-30T00:07:56.052Z,10.70
2019-03-30T00:10:24.888Z,10.20
2019-03-30T00:12:53.726Z,10.37
2019-03-30T00:15:22.670Z,9.33
2019-03-30T00:17:51.662Z,10.07
2019-03-30T00:20:20.530Z,10.97
2019-03-30T00:22:49.420Z,10.40
2019-03-30T00:25:18.472Z,10.13
2019-03-30T00:27:47.338Z,11.10
2019-03-30T00:30:19.036Z,10.17
2019-03-30T00:32:47.169Z,10.20
2019-03-30T00:35:16.059Z,9.80
2019-03-30T00:37:44.847Z,10.53
2019-03-30T00:40:13.872Z,9.90
2019-03-30T00:42:42.641Z,10.03
2019-03-30T00:45:11.535Z,9.67
2019-03-30T00:47:40.517Z,10.03
2019-03-30T00:50:09.495Z,9.83
2019-03-30T00:52:38.358Z,10.17
2019-03-30T00:55:07.340Z,10.10
2019-03-30T00:57:36.145Z,10.47
2019-03-30T01:00:06.863Z,10.27
2019-03-30T01:02:35.740Z,10.13
2019-03-30T01:05:04.852Z,10.47
2019-03-30T01:07:33.765Z,10.50
2019-03-30T01:10:02.706Z,11.00
2019-03-30T01:12:31.583Z,10.80
2019-03-30T01:15:00.568Z,11.17
2019-03-30T01:17:29.464Z,10.27
2019-03-30T01:20:03.186Z,10.20
2019-03-30T01:22:28.783Z,11.10
2019-03-30T01:24:57.709Z,10.67
2019-03-30T01:27:26.598Z,10.73
2019-03-30T01:29:55.466Z,10.93
2019-03-30T01:32:24.349Z,10.40
2019-03-30T01:34:53.235Z,10.87
2019-03-30T01:37:22.027Z,10.67
2019-03-30T01:39:50.940Z,11.17
2019-03-30T01:42:19.735Z,10.63
2019-03-30T01:44:48.579Z,10.17
2019-03-30T01:47:17.386Z,10.07
2019-03-30T01:49:46.216Z,11.03
2019-03-30T01:52:15.060Z,11.00
2019-03-30T01:54:44.056Z,12.33
2019-03-30T01:57:12.888Z,10.77
2019-03-30T01:59:41.866Z,11.07
2019-03-30T02:02:10.772Z,10.33
2019-03-30T02:04:39.631Z,11.17
2019-03-30T02:07:08.444Z,9.97
2019-03-30T02:09:37.333Z,11.27
2019-03-30T02:12:06.226Z,10.97
2019-03-30T02:14:35.080Z,10.83
2019-03-30T02:17:03.943Z,10.93
2019-03-30T02:19:32.745Z,11.27
2019-03-30T02:22:01.605Z,11.33
2019-03-30T02:24:30.480Z,11.13
2019-03-30T02:27:07.235Z,11.03
2019-03-30T02:29:36.053Z,11.33
2019-03-30T02:32:05.145Z,10.57
2019-03-30T02:34:34.077Z,11.87
2019-03-30T02:37:03.145Z,10.07
2019-03-30T02:39:32.097Z,11.13
2019-03-30T02:42:01.045Z,10.83
2019-03-30T02:44:29.888Z,10.60
2019-03-30T02:46:58.653Z,10.97
2019-03-30T02:49:27.614Z,10.17
2019-03-30T02:51:56.662Z,10.57
2019-03-30T02:54:25.554Z,10.17
2019-03-30T02:56:54.320Z,10.20
2019-03-30T02:59:23.164Z,11.17
2019-03-30T03:01:51.979Z,11.07
2019-03-30T03:04:20.852Z,11.47
2019-03-30T03:06:50.003Z,11.70
2019-03-30T03:09:19.105Z,11.47
2019-03-30T03:11:48.007Z,10.90
2019-03-30T03:14:16.892Z,11.93
2019-03-30T03:16:45.867Z,11.70
2019-03-30T03:19:16.009Z,10.97
2019-03-30T03:21:44.826Z,12.20
2019-03-30T03:24:13.742Z,12.10
2019-03-30T03:26:42.604Z,11.07
2019-03-30T03:29:11.488Z,12.87
2019-03-30T03:31:40.454Z,11.90
2019-03-30T03:34:09.442Z,11.67
2019-03-30T03:36:38.245Z,11.90
2019-03-30T03:39:07.128Z,11.90
2019-03-30T03:41:35.984Z,11.50
2019-03-30T03:44:04.828Z,11.57
2019-03-30T03:46:33.607Z,12.80
2019-03-30T03:49:02.426Z,11.67
2019-03-30T03:51:32.129Z,11.93
2019-03-30T03:54:01.190Z,12.13
2019-03-30T03:56:30.699Z,12.20
2019-03-30T03:59:01.119Z,11.57
2019-03-30T04:01:31.470Z,11.37
2019-03-30T04:04:00.535Z,10.77
2019-03-30T04:06:30.921Z,10.33
2019-03-30T04:09:02.686Z,12.17
2019-03-30T04:11:33.350Z,11.53
2019-03-30T04:14:03.960Z,12.07
2019-03-30T04:16:33.700Z,12.90
2019-03-30T04:19:03.472Z,12.10
2019-03-30T04:21:43.870Z,12.03
2019-03-30T04:24:04.277Z,12.63
2019-03-30T04:26:33.938Z,12.03
2019-03-30T04:29:03.586Z,12.50
2019-03-30T04:31:33.172Z,13.63
2019-03-30T04:34:02.734Z,12.90
2019-03-30T04:36:32.432Z,12.20
2019-03-30T04:39:01.940Z,12.50
2019-03-30T04:41:31.498Z,13.30
2019-03-30T04:44:01.221Z,12.87
2019-03-30T04:46:30.776Z,14.20
2019-03-30T04:49:00.382Z,14.83
2019-03-30T04:51:29.939Z,16.03
2019-03-30T04:53:59.451Z,15.43
2019-03-30T04:56:28.955Z,16.17
2019-03-30T04:58:58.613Z,15.93
2019-03-30T05:01:28.253Z,15.33
2019-03-30T05:03:57.863Z,15.87
2019-03-30T05:06:27.446Z,15.97
2019-03-30T05:08:56.278Z,15.63
2019-03-30T05:11:25.944Z,15.07
2019-03-30T05:13:55.566Z,15.73
2019-03-30T05:16:25.291Z,16.10
2019-03-30T05:18:54.878Z,15.87
2019-03-30T05:21:24.429Z,15.90
2019-03-30T05:23:54.048Z,16.27
2019-03-30T05:26:23.716Z,17.33
2019-03-30T05:28:53.267Z,19.00
2019-03-30T05:31:22.977Z,18.57
2019-03-30T05:33:52.641Z,18.23
2019-03-30T05:36:22.127Z,17.80
2019-03-30T05:38:51.753Z,16.17
2019-03-30T05:41:21.429Z,15.50
2019-03-30T05:43:50.981Z,14.60
2019-03-30T05:46:20.544Z,13.57
2019-03-30T05:48:50.260Z,13.70
2019-03-30T05:51:20.024Z,13.17
2019-03-30T05:53:49.824Z,13.17
2019-03-30T05:56:19.423Z,13.03
2019-03-30T05:58:49.096Z,12.83
2019-03-30T06:01:18.705Z,12.70
2019-03-30T06:03:48.304Z,11.97
2019-03-30T06:06:17.934Z,12.70
2019-03-30T06:08:47.461Z,11.73
2019-03-30T06:11:16.980Z,12.10
2019-03-30T06:13:46.656Z,12.40
2019-03-30T06:16:16.212Z,11.77
2019-03-30T06:18:45.792Z,11.33
2019-03-30T06:21:15.422Z,11.90
2019-03-30T06:23:48.411Z,11.33
2019-03-30T06:26:16.461Z,11.63
2019-03-30T06:28:46.125Z,12.53
2019-03-30T06:31:15.775Z,13.23
2019-03-30T06:33:45.348Z,12.90
2019-03-30T06:36:14.980Z,12.30
2019-03-30T06:38:44.689Z,12.33
2019-03-30T06:41:14.327Z,13.00
2019-03-30T06:43:43.877Z,11.70
2019-03-30T06:46:13.510Z,12.60
2019-03-30T06:48:43.089Z,12.70
2019-03-30T06:51:12.846Z,13.60
2019-03-30T06:53:42.412Z,12.50
2019-03-30T06:56:11.976Z,12.83
2019-03-30T06:58:41.621Z,14.40
2019-03-30T07:01:11.371Z,13.97
2019-03-30T07:03:41.404Z,13.77
2019-03-30T07:06:12.277Z,14.30
2019-03-30T07:08:44.585Z,13.47
2019-03-30T07:11:21.101Z,13.57
2019-03-30T07:13:47.879Z,14.07
2019-03-30T07:16:17.447Z,14.07
2019-03-30T07:18:47.717Z,14.03
2019-03-30T07:21:17.294Z,13.50
2019-03-30T07:23:46.856Z,14.07
2019-03-30T07:26:16.609Z,13.77
2019-03-30T07:28:47.218Z,14.90
2019-03-30T07:31:17.080Z,13.87
2019-03-30T07:33:46.594Z,13.53
2019-03-30T07:36:16.453Z,14.13
2019-03-30T07:38:46.465Z,15.30
2019-03-30T07:41:16.349Z,15.47
2019-03-30T07:43:46.072Z,15.43
2019-03-30T07:46:15.814Z,16.17
2019-03-30T07:48:45.385Z,17.47
2019-03-30T07:51:14.912Z,17.13
2019-03-30T07:53:45.124Z,16.03
2019-03-30T07:56:14.985Z,15.87
2019-03-30T07:58:44.679Z,15.97
2019-03-30T08:01:14.316Z,17.73
2019-03-30T08:03:43.965Z,15.87
2019-03-30T08:06:13.594Z,16.47
2019-03-30T08:08:46.287Z,17.77
2019-03-30T08:11:15.869Z,17.13
2019-03-30T08:13:46.216Z,16.73
2019-03-30T08:16:16.341Z,17.77
2019-03-30T08:18:45.991Z,16.50
2019-03-30T08:21:15.693Z,16.83
2019-03-30T08:23:45.238Z,16.63
2019-03-30T08:26:14.917Z,16.63
2019-03-30T08:28:44.562Z,17.17
2019-03-30T08:31:14.185Z,18.67
2019-03-30T08:33:43.856Z,16.87
2019-03-30T08:36:13.481Z,18.00
2019-03-30T08:38:43.057Z,17.33
2019-03-30T08:41:12.714Z,18.13
2019-03-30T08:43:42.294Z,18.63
2019-03-30T08:46:12.086Z,18.03
2019-03-30T08:48:41.756Z,17.67
2019-03-30T08:51:11.492Z,16.90
2019-03-30T08:53:53.951Z,17.33
2019-03-30T08:56:13.097Z,17.10
2019-03-30T08:58:42.721Z,17.10
2019-03-30T09:01:12.361Z,18.90
2019-03-30T09:03:42.338Z,19.20
2019-03-30T09:06:11.931Z,16.50
2019-03-30T09:08:41.708Z,17.47
2019-03-30T09:11:11.606Z,18.80
2019-03-30T09:13:41.256Z,17.07
2019-03-30T09:16:11.557Z,17.57
2019-03-30T09:18:41.088Z,17.37
2019-03-30T09:21:10.738Z,17.43
2019-03-30T09:23:40.340Z,17.50
2019-03-30T09:26:10.059Z,16.23
2019-03-30T09:28:39.691Z,16.90
2019-03-30T09:31:09.526Z,16.70
2019-03-30T09:33:39.123Z,16.73
2019-03-30T09:36:09.093Z,16.87
2019-03-30T09:38:38.749Z,15.63
2019-03-30T09:41:10.858Z,16.13
2019-03-30T09:43:40.665Z,16.20
2019-03-30T09:46:10.350Z,15.93
2019-03-30T09:48:40.018Z,16.60
2019-03-30T09:51:09.832Z,15.57
2019-03-30T09:53:39.465Z,14.93
2019-03-30T09:56:09.188Z,14.93
2019-03-30T09:58:38.857Z,15.10
2019-03-30T10:01:07.744Z,14.33
2019-03-30T10:03:36.758Z,13.73
2019-03-30T10:06:05.700Z,14.53
2019-03-30T10:08:34.596Z,14.70
2019-03-30T10:11:03.471Z,14.10
2019-03-30T10:13:32.413Z,13.40
2019-03-30T10:16:01.220Z,13.63
2019-03-30T10:18:30.062Z,13.50
2019-03-30T10:20:58.893Z,12.70
2019-03-30T10:23:27.739Z,12.00
2019-03-30T10:25:56.555Z,13.20
2019-03-30T10:28:25.455Z,13.17
2019-03-30T10:30:54.345Z,12.97
2019-03-30T10:33:23.187Z,12.07
2019-03-30T10:35:51.969Z,12.80
2019-03-30T10:38:20.988Z,12.57
2019-03-30T10:40:49.990Z,13.80
2019-03-30T10:43:18.794Z,14.47
2019-03-30T10:45:47.731Z,14.93
2019-03-30T10:48:16.591Z,15.37
2019-03-30T10:50:45.449Z,14.53
2019-03-30T10:53:14.508Z,14.80
2019-03-30T10:55:43.492Z,13.77
2019-03-30T10:58:12.550Z,14.97
2019-03-30T11:00:41.687Z,14.20
2019-03-30T11:03:10.679Z,15.30
2019-03-30T11:05:39.721Z,13.30
2019-03-30T11:08:08.745Z,12.40
2019-03-30T11:10:37.603Z,12.73
2019-03-30T11:13:06.511Z,13.60
2019-03-30T11:15:35.409Z,12.93
2019-03-30T11:18:04.358Z,13.00
2019-03-30T11:20:33.165Z,12.73
2019-03-30T11:23:02.074Z,13.70
2019-03-30T11:25:32.031Z,12.33
2019-03-30T11:28:00.938Z,10.87
2019-03-30T11:30:29.917Z,10.50
2019-03-30T11:32:58.833Z,9.20
2019-03-30T11:35:27.718Z,10.10
2019-03-30T11:37:56.508Z,10.40
2019-03-30T11:40:25.388Z,9.13
2019-03-30T11:42:54.282Z,14.70
2019-03-30T11:45:23.292Z,11.10
2019-03-30T11:47:52.258Z,11.37
2019-03-30T11:50:21.062Z,10.77
2019-03-30T11:52:49.998Z,10.10
2019-03-30T11:55:22.151Z,11.20
2019-03-30T11:57:49.352Z,9.93
2019-03-30T12:00:18.528Z,12.97
2019-03-30T12:02:47.368Z,12.10
2019-03-30T12:05:16.344Z,11.90
2019-03-30T12:07:45.232Z,14.00
2019-03-30T12:10:14.247Z,12.73
2019-03-30T12:12:43.200Z,11.80
2019-03-30T12:15:12.104Z,12.40
2019-03-30T12:17:41.409Z,12.10
2019-03-30T12:20:10.482Z,11.53
2019-03-30T12:22:39.930Z,11.33
2019-03-30T12:25:08.878Z,10.47
2019-03-30T12:27:37.924Z,10.77
2019-03-30T12:30:08.036Z,9.43
2019-03-30T12:32:37.002Z,10.23
2019-03-30T12:35:06.634Z,10.17
2019-03-30T12:37:35.563Z,10.67
2019-03-30T12:40:04.819Z,11.53
2019-03-30T12:42:33.740Z,10.43
2019-03-30T12:45:02.673Z,10.30
2019-03-30T12:47:32.373Z,10.90
2019-03-30T12:50:02.139Z,10.17
2019-03-30T12:52:31.807Z,9.60
2019-03-30T12:55:01.597Z,7.17
2019-03-30T12:57:31.141Z,7.50
2019-03-30T13:00:00.778Z,6.77
2019-03-30T13:02:30.823Z,7.10
2019-03-30T13:05:00.546Z,6.73
2019-03-30T13:07:30.221Z,7.33
2019-03-30T13:09:59.757Z,7.53
2019-03-30T13:12:29.407Z,7.67
2019-03-30T13:14:59.117Z,7.30
2019-03-30T13:17:29.109Z,7.83
2019-03-30T13:19:58.693Z,7.30
2019-03-30T13:22:28.347Z,7.40
2019-03-30T13:24:58.165Z,6.87
2019-03-30T13:27:27.892Z,6.93
2019-03-30T13:29:57.580Z,7.63
2019-03-30T13:32:27.325Z,7.23
2019-03-30T13:34:56.964Z,6.80
2019-03-30T13:37:26.811Z,7.03
2019-03-30T13:39:56.588Z,6.70
2019-03-30T13:42:26.400Z,7.23
2019-03-30T13:44:56.192Z,6.90
2019-03-30T13:47:26.020Z,7.60
2019-03-30T13:49:55.710Z,7.73
2019-03-30T13:52:25.442Z,9.27
2019-03-30T13:54:55.149Z,8.23
2019-03-30T13:57:24.810Z,8.13
2019-03-30T13:59:54.911Z,8.83
2019-03-30T14:02:25.576Z,7.50
2019-03-30T14:04:55.286Z,8.17
2019-03-30T14:07:25.159Z,7.97
2019-03-30T14:09:54.888Z,6.50
2019-03-30T14:12:24.618Z,6.60
2019-03-30T14:14:54.635Z,7.80
2019-03-30T14:17:24.268Z,8.37
2019-03-30T14:19:53.983Z,8.00
2019-03-30T14:22:24.120Z,8.50
2019-03-30T14:24:53.845Z,8.53
2019-03-30T14:27:23.516Z,9.13
2019-03-30T14:29:54.511Z,9.10
2019-03-30T14:32:24.360Z,9.00
2019-03-30T14:34:54.046Z,9.93
2019-03-30T14:37:23.849Z,10.30
2019-03-30T14:39:55.203Z,10.10
2019-03-30T14:42:24.754Z,10.37
2019-03-30T14:44:54.546Z,10.50
2019-03-30T14:47:24.404Z,10.33
2019-03-30T14:49:54.132Z,10.53
2019-03-30T14:52:23.635Z,9.53
2019-03-30T14:54:53.446Z,10.50
2019-03-30T14:57:23.169Z,11.07
2019-03-30T14:59:52.945Z,11.20
2019-03-30T15:02:22.859Z,11.40
2019-03-30T15:04:52.604Z,10.93
2019-03-30T15:07:23.559Z,10.57
2019-03-30T15:09:53.233Z,11.97
2019-03-30T15:12:23.230Z,11.37
2019-03-30T15:14:52.896Z,12.27
2019-03-30T15:17:22.797Z,12.23
2019-03-30T15:19:52.736Z,11.93
2019-03-30T15:22:22.585Z,11.17
2019-03-30T15:24:52.235Z,11.63
2019-03-30T15:27:22.165Z,12.20
2019-03-30T15:29:52.396Z,12.07
2019-03-30T15:32:21.988Z,13.23
2019-03-30T15:34:51.651Z,12.70
2019-03-30T15:37:21.231Z,13.03
2019-03-30T15:39:50.072Z,13.37
2019-03-30T15:42:19.362Z,12.27
2019-03-30T15:44:48.289Z,12.33
2019-03-30T15:47:17.236Z,12.87
2019-03-30T15:49:46.171Z,12.13
2019-03-30T15:52:15.346Z,12.00
2019-03-30T15:54:44.316Z,11.73
2019-03-30T15:57:14.347Z,11.30
2019-03-30T15:59:43.568Z,11.07
2019-03-30T16:02:12.429Z,10.90
2019-03-30T16:04:41.340Z,10.27
2019-03-30T16:07:10.310Z,10.83
2019-03-30T16:09:39.209Z,10.27
2019-03-30T16:12:08.332Z,9.77
2019-03-30T16:14:37.186Z,10.07
2019-03-30T16:17:06.323Z,10.27
2019-03-30T16:19:35.184Z,10.20
2019-03-30T16:22:04.218Z,10.53
2019-03-30T16:24:33.237Z,9.90
2019-03-30T16:27:02.182Z,10.43
2019-03-30T16:29:31.225Z,10.87
2019-03-30T16:32:00.168Z,10.17
2019-03-30T16:34:29.219Z,10.67
2019-03-30T16:36:58.165Z,11.30
2019-03-30T16:39:27.087Z,10.40
2019-03-30T16:41:56.116Z,10.43
2019-03-30T16:44:25.349Z,11.83
2019-03-30T16:46:57.284Z,13.50
2019-03-30T16:49:25.802Z,12.90
2019-03-30T16:51:55.051Z,11.43
2019-03-30T16:54:24.115Z,13.47
2019-03-30T16:56:52.978Z,10.60
2019-03-30T16:59:22.102Z,10.63
2019-03-30T17:01:51.069Z,11.77
2019-03-30T17:04:20.004Z,11.63
2019-03-30T17:06:49.041Z,15.60
2019-03-30T17:09:18.120Z,12.20
2019-03-30T17:11:47.115Z,10.50
2019-03-30T17:14:16.039Z,11.00
2019-03-30T17:16:45.006Z,12.33
2019-03-30T17:19:13.885Z,12.67
2019-03-30T17:21:42.856Z,11.43
2019-03-30T17:24:11.920Z,12.50
2019-03-30T17:26:40.858Z,12.07
2019-03-30T17:29:10.041Z,11.60
2019-03-30T17:31:39.005Z,11.53
2019-03-30T17:34:08.135Z,12.27
2019-03-30T17:36:37.090Z,12.57
2019-03-30T17:39:08.607Z,13.80
2019-03-30T17:41:37.727Z,14.00
2019-03-30T17:44:06.700Z,13.87
2019-03-30T17:46:35.563Z,13.67
2019-03-30T17:49:04.530Z,15.10
2019-03-30T17:51:33.584Z,13.90
2019-03-30T17:54:02.463Z,14.60
2019-03-30T17:56:31.354Z,14.27
2019-03-30T17:59:00.193Z,14.60
2019-03-30T18:01:29.130Z,13.70
2019-03-30T18:03:57.965Z,14.57
2019-03-30T18:06:26.914Z,14.67
2019-03-30T18:08:55.845Z,15.67
2019-03-30T18:11:24.732Z,14.47
2019-03-30T18:13:53.657Z,13.33
2019-03-30T18:16:22.672Z,14.33
2019-03-30T18:18:51.676Z,14.63
2019-03-30T18:21:20.477Z,14.30
2019-03-30T18:23:49.388Z,14.23
2019-03-30T18:26:18.192Z,16.33
2019-03-30T18:28:47.217Z,14.53
2019-03-30T18:31:16.151Z,15.27
2019-03-30T18:33:45.065Z,16.07
2019-03-30T18:36:15.758Z,15.93
2019-03-30T18:38:45.518Z,15.30
2019-03-30T18:41:14.462Z,15.33
2019-03-30T18:43:43.492Z,16.93
2019-03-30T18:46:12.349Z,16.70
2019-03-30T18:48:41.272Z,16.67
2019-03-30T18:51:10.208Z,16.23
2019-03-30T18:53:39.302Z,17.00
2019-03-30T18:56:08.195Z,17.07
2019-03-30T18:58:41.770Z,17.30
2019-03-30T19:01:07.749Z,17.47
2019-03-30T19:03:36.668Z,19.20
2019-03-30T19:06:05.582Z,16.60
2019-03-30T19:08:34.810Z,18.27
2019-03-30T19:11:03.871Z,18.63
2019-03-30T19:13:32.752Z,17.77
2019-03-30T19:16:01.685Z,17.67
2019-03-30T19:18:30.600Z,18.47
2019-03-30T19:20:59.364Z,18.90
2019-03-30T19:23:28.222Z,19.33
2019-03-30T19:25:57.320Z,19.30
2019-03-30T19:28:26.103Z,19.33
2019-03-30T19:30:54.947Z,19.50
2019-03-30T19:33:23.863Z,19.97
2019-03-30T19:35:52.867Z,20.13
2019-03-30T19:38:21.771Z,18.07
2019-03-30T19:40:50.848Z,17.47
2019-03-30T19:43:19.819Z,19.23
2019-03-30T19:45:48.614Z,17.60
2019-03-30T19:48:17.488Z,18.33
2019-03-30T19:50:46.705Z,18.57
2019-03-30T19:53:15.905Z,18.17
2019-03-30T19:55:44.811Z,18.20
2019-03-30T19:58:13.960Z,18.17
2019-03-30T20:00:42.976Z,18.07
2019-03-30T20:03:11.829Z,17.60
2019-03-30T20:05:44.428Z,17.53
2019-03-30T20:08:12.644Z,18.83
2019-03-30T20:10:41.750Z,18.17
2019-03-30T20:13:11.288Z,19.50
2019-03-30T20:15:40.192Z,18.37
2019-03-30T20:18:09.179Z,19.10
2019-03-30T20:20:38.110Z,18.47
2019-03-30T20:23:06.983Z,18.63
2019-03-30T20:25:36.152Z,18.43
2019-03-30T20:28:05.066Z,17.90
2019-03-30T20:30:34.177Z,23.00
2019-03-30T20:33:02.922Z,19.67
2019-03-30T20:35:31.982Z,20.10
2019-03-30T20:38:01.139Z,21.27
2019-03-30T20:40:30.223Z,19.60
2019-03-30T20:42:59.185Z,19.33
2019-03-30T20:45:27.919Z,20.97
2019-03-30T20:47:56.783Z,20.43
2019-03-30T20:50:25.661Z,21.83
2019-03-30T20:52:55.617Z,19.07
2019-03-30T20:55:24.507Z,19.27
2019-03-30T20:57:53.636Z,19.47
2019-03-30T21:00:22.657Z,20.80
2019-03-30T21:02:51.496Z,21.53
2019-03-30T21:05:20.410Z,20.50
2019-03-30T21:07:49.311Z,22.67
2019-03-30T21:10:18.156Z,21.20
2019-03-30T21:12:46.957Z,22.90
2019-03-30T21:15:15.741Z,20.37
2019-03-30T21:17:45.093Z,20.47
2019-03-30T21:20:14.273Z,20.07
2019-03-30T21:22:43.232Z,20.77
2019-03-30T21:25:14.151Z,19.03
2019-03-30T21:27:42.956Z,19.43
2019-03-30T21:30:13.683Z,21.03
2019-03-30T21:32:42.632Z,19.70
2019-03-30T21:35:11.695Z,20.87
2019-03-30T21:37:40.513Z,20.47
2019-03-30T21:40:09.635Z,18.33
2019-03-30T21:42:38.474Z,20.10
2019-03-30T21:45:07.707Z,20.57
2019-03-30T21:47:36.739Z,22.20
2019-03-30T21:50:06.338Z,20.73
2019-03-30T21:52:35.328Z,22.23
2019-03-30T21:55:05.966Z,20.07
2019-03-30T21:57:36.665Z,21.10
2019-03-30T22:00:10.404Z,19.50
2019-03-30T22:02:37.332Z,20.60
2019-03-30T22:05:06.269Z,22.23
2019-03-30T22:07:35.484Z,20.47
2019-03-30T22:10:05.290Z,21.00
2019-03-30T22:12:34.236Z,21.70
2019-03-30T22:15:03.450Z,20.40
2019-03-30T22:17:32.547Z,22.47
2019-03-30T22:20:01.404Z,20.63
2019-03-30T22:22:31.377Z,20.93
2019-03-30T22:25:00.373Z,21.73
2019-03-30T22:27:29.301Z,22.00
2019-03-30T22:29:58.079Z,21.40
2019-03-30T22:32:26.876Z,21.30
2019-03-30T22:34:55.721Z,21.73
2019-03-30T22:37:24.874Z,21.83
2019-03-30T22:39:53.898Z,21.87
2019-03-30T22:42:23.071Z,21.17
2019-03-30T22:44:51.927Z,21.83
2019-03-30T22:47:20.870Z,22.90
2019-03-30T22:49:51.740Z,23.17
2019-03-30T22:52:20.566Z,20.93
2019-03-30T22:54:49.389Z,20.50
2019-03-30T22:57:18.383Z,22.30
2019-03-30T22:59:47.468Z,21.53
2019-03-30T23:02:16.593Z,21.97
2019-03-30T23:04:45.559Z,21.93
2019-03-30T23:07:14.469Z,24.50
2019-03-30T23:09:43.391Z,22.90
2019-03-30T23:12:12.445Z,21.37
2019-03-30T23:14:41.655Z,21.77
2019-03-30T23:17:10.666Z,21.63
2019-03-30T23:19:39.676Z,22.97
2019-03-30T23:22:08.655Z,21.30
2019-03-30T23:24:37.488Z,20.87
2019-03-30T23:27:06.404Z,21.57
2019-03-30T23:29:35.255Z,21.13
2019-03-30T23:32:07.139Z,21.03
2019-03-30T23:34:35.984Z,21.27
2019-03-30T23:37:04.814Z,22.33
2019-03-30T23:39:33.812Z,21.37
2019-03-30T23:42:02.844Z,21.63
2019-03-30T23:44:31.893Z,20.67
2019-03-30T23:47:00.734Z,21.43
2019-03-30T23:49:29.536Z,20.97
2019-03-30T23:51:58.437Z,21.33
2019-03-30T23:54:27.308Z,21.67
2019-03-30T23:56:56.250Z,22.67
2019-03-30T23:59:29.430Z,21.67
